sensor_id;sensor_type;location;lat;lon;timestamp;temperature;humidity
22161;DHT22;49035;48.812;11.762;2023-07-29T00:01:22;16.60;99.90
22161;DHT22;49035;48.812;11.762;2023-07-29T00:03:48;16.60;99.90
22161;DHT22;49035;48.812;11.762;2023-07-29T00:06:14;16.60;99.90
22161;DHT22;49035;48.812;11.762;2023-07-29T00:08:39;16.60;99.90
22161;DHT22;49035;48.812;11.762;2023-07-29T00:11:05;16.60;99.90
22161;DHT22;49035;48.812;11.762;2023-07-29T00:13:30;16.60;99.90
22161;DHT22;49035;48.812;11.762;2023-07-29T00:15:56;16.50;99.90
22161;DHT22;49035;48.812;11.762;2023-07-29T00:18:22;16.60;99.90
22161;DHT22;49035;48.812;11.762;2023-07-29T00:20:48;16.50;99.90
22161;DHT22;49035;48.812;11.762;2023-07-29T00:23:14;16.60;99.90
22161;DHT22;49035;48.812;11.762;2023-07-29T00:25:40;16.50;99.90
22161;DHT22;49035;48.812;11.762;2023-07-29T00:28:05;16.50;99.90
22161;DHT22;49035;48.812;11.762;2023-07-29T00:30:31;16.50;99.90
22161;DHT22;49035;48.812;11.762;2023-07-29T00:32:57;16.50;99.90
22161;DHT22;49035;48.812;11.762;2023-07-29T00:35:22;16.50;99.90
22161;DHT22;49035;48.812;11.762;2023-07-29T00:37:48;16.50;99.90
22161;DHT22;49035;48.812;11.762;2023-07-29T00:40:20;16.40;99.90
22161;DHT22;49035;48.812;11.762;2023-07-29T00:42:46;16.30;99.90
22161;DHT22;49035;48.812;11.762;2023-07-29T00:45:12;16.30;99.90
22161;DHT22;49035;48.812;11.762;2023-07-29T00:47:38;16.30;99.90
22161;DHT22;49035;48.812;11.762;2023-07-29T00:50:08;16.20;99.90
22161;DHT22;49035;48.812;11.762;2023-07-29T00:52:34;16.20;99.90
22161;DHT22;49035;48.812;11.762;2023-07-29T00:55:00;16.10;99.90
22161;DHT22;49035;48.812;11.762;2023-07-29T00:57:26;16.10;99.90
22161;DHT22;49035;48.812;11.762;2023-07-29T00:59:54;16.10;99.90
22161;DHT22;49035;48.812;11.762;2023-07-29T01:02:19;16.10;99.90
22161;DHT22;49035;48.812;11.762;2023-07-29T01:04:45;16.10;99.90
22161;DHT22;49035;48.812;11.762;2023-07-29T01:09:48;16.20;99.90
22161;DHT22;49035;48.812;11.762;2023-07-29T01:12:20;16.10;99.90
22161;DHT22;49035;48.812;11.762;2023-07-29T01:15:25;16.00;99.90
22161;DHT22;49035;48.812;11.762;2023-07-29T01:17:55;16.00;99.90
22161;DHT22;49035;48.812;11.762;2023-07-29T01:20:24;16.00;99.90
22161;DHT22;49035;48.812;11.762;2023-07-29T01:22:50;15.90;99.90
22161;DHT22;49035;48.812;11.762;2023-07-29T01:25:16;15.90;99.90
22161;DHT22;49035;48.812;11.762;2023-07-29T01:27:45;15.70;99.90
22161;DHT22;49035;48.812;11.762;2023-07-29T01:30:11;15.70;99.90
22161;DHT22;49035;48.812;11.762;2023-07-29T01:32:55;15.60;99.90
22161;DHT22;49035;48.812;11.762;2023-07-29T01:35:27;15.60;99.90
22161;DHT22;49035;48.812;11.762;2023-07-29T01:38:04;15.40;99.90
22161;DHT22;49035;48.812;11.762;2023-07-29T01:40:30;15.30;99.90
22161;DHT22;49035;48.812;11.762;2023-07-29T01:42:56;15.30;99.90
22161;DHT22;49035;48.812;11.762;2023-07-29T01:45:25;15.20;99.90
22161;DHT22;49035;48.812;11.762;2023-07-29T01:47:51;15.00;99.90
22161;DHT22;49035;48.812;11.762;2023-07-29T01:50:17;15.00;99.90
22161;DHT22;49035;48.812;11.762;2023-07-29T01:52:42;14.90;99.90
22161;DHT22;49035;48.812;11.762;2023-07-29T01:55:08;14.90;99.90
22161;DHT22;49035;48.812;11.762;2023-07-29T01:57:34;14.80;99.90
22161;DHT22;49035;48.812;11.762;2023-07-29T01:59:59;14.60;99.90
22161;DHT22;49035;48.812;11.762;2023-07-29T02:02:25;14.60;99.90
22161;DHT22;49035;48.812;11.762;2023-07-29T02:04:51;14.60;99.90
22161;DHT22;49035;48.812;11.762;2023-07-29T02:07:18;14.60;99.90
22161;DHT22;49035;48.812;11.762;2023-07-29T02:09:44;14.60;99.90
22161;DHT22;49035;48.812;11.762;2023-07-29T02:12:10;14.70;99.90
22161;DHT22;49035;48.812;11.762;2023-07-29T02:14:36;14.50;99.90
22161;DHT22;49035;48.812;11.762;2023-07-29T02:17:01;14.50;99.90
22161;DHT22;49035;48.812;11.762;2023-07-29T02:19:27;14.40;99.90
22161;DHT22;49035;48.812;11.762;2023-07-29T02:21:52;14.40;99.90
22161;DHT22;49035;48.812;11.762;2023-07-29T02:24:18;14.50;99.90
22161;DHT22;49035;48.812;11.762;2023-07-29T02:26:43;14.40;99.90
22161;DHT22;49035;48.812;11.762;2023-07-29T02:29:09;14.40;99.90
22161;DHT22;49035;48.812;11.762;2023-07-29T02:31:35;14.30;99.90
22161;DHT22;49035;48.812;11.762;2023-07-29T02:34:02;14.30;99.90
22161;DHT22;49035;48.812;11.762;2023-07-29T02:36:28;14.30;99.90
22161;DHT22;49035;48.812;11.762;2023-07-29T02:38:54;14.20;99.90
22161;DHT22;49035;48.812;11.762;2023-07-29T02:41:19;14.30;99.90
22161;DHT22;49035;48.812;11.762;2023-07-29T02:43:48;14.20;99.90
22161;DHT22;49035;48.812;11.762;2023-07-29T02:46:14;14.10;99.90
22161;DHT22;49035;48.812;11.762;2023-07-29T02:48:40;14.10;99.90
22161;DHT22;49035;48.812;11.762;2023-07-29T02:51:06;14.00;99.90
22161;DHT22;49035;48.812;11.762;2023-07-29T02:53:31;14.00;99.90
22161;DHT22;49035;48.812;11.762;2023-07-29T02:55:57;14.00;99.90
22161;DHT22;49035;48.812;11.762;2023-07-29T02:58:22;13.90;99.90
22161;DHT22;49035;48.812;11.762;2023-07-29T03:00:48;13.80;99.90
22161;DHT22;49035;48.812;11.762;2023-07-29T03:03:14;13.80;99.90
22161;DHT22;49035;48.812;11.762;2023-07-29T03:05:40;13.80;99.90
22161;DHT22;49035;48.812;11.762;2023-07-29T03:08:05;13.80;99.90
22161;DHT22;49035;48.812;11.762;2023-07-29T03:10:31;13.70;99.90
22161;DHT22;49035;48.812;11.762;2023-07-29T03:12:56;13.80;99.90
22161;DHT22;49035;48.812;11.762;2023-07-29T03:15:25;13.90;99.90
22161;DHT22;49035;48.812;11.762;2023-07-29T03:17:52;13.90;99.90
22161;DHT22;49035;48.812;11.762;2023-07-29T03:20:18;13.80;99.90
22161;DHT22;49035;48.812;11.762;2023-07-29T03:22:44;13.70;99.90
22161;DHT22;49035;48.812;11.762;2023-07-29T03:25:10;13.60;99.90
22161;DHT22;49035;48.812;11.762;2023-07-29T03:27:36;13.50;99.90
22161;DHT22;49035;48.812;11.762;2023-07-29T03:30:05;13.40;99.90
22161;DHT22;49035;48.812;11.762;2023-07-29T03:32:31;13.40;99.90
22161;DHT22;49035;48.812;11.762;2023-07-29T03:34:56;13.50;99.90
22161;DHT22;49035;48.812;11.762;2023-07-29T03:37:22;13.50;99.90
22161;DHT22;49035;48.812;11.762;2023-07-29T03:39:48;13.60;99.90
22161;DHT22;49035;48.812;11.762;2023-07-29T03:42:13;13.80;99.90
22161;DHT22;49035;48.812;11.762;2023-07-29T03:44:39;13.80;99.90
22161;DHT22;49035;48.812;11.762;2023-07-29T03:47:05;13.70;99.90
22161;DHT22;49035;48.812;11.762;2023-07-29T03:49:31;13.90;99.90
22161;DHT22;49035;48.812;11.762;2023-07-29T03:51:57;14.10;99.90
22161;DHT22;49035;48.812;11.762;2023-07-29T03:54:23;14.20;99.90
22161;DHT22;49035;48.812;11.762;2023-07-29T03:56:48;14.20;99.90
22161;DHT22;49035;48.812;11.762;2023-07-29T03:59:14;14.30;99.90
22161;DHT22;49035;48.812;11.762;2023-07-29T04:01:40;14.20;99.90
22161;DHT22;49035;48.812;11.762;2023-07-29T04:04:05;14.20;99.90
22161;DHT22;49035;48.812;11.762;2023-07-29T04:06:31;14.30;99.90
22161;DHT22;49035;48.812;11.762;2023-07-29T04:08:57;14.40;99.90
22161;DHT22;49035;48.812;11.762;2023-07-29T04:11:23;14.60;99.90
22161;DHT22;49035;48.812;11.762;2023-07-29T04:13:49;14.70;99.90
22161;DHT22;49035;48.812;11.762;2023-07-29T04:16:15;14.80;99.90
22161;DHT22;49035;48.812;11.762;2023-07-29T04:18:42;14.80;99.90
22161;DHT22;49035;48.812;11.762;2023-07-29T04:21:07;15.00;99.90
22161;DHT22;49035;48.812;11.762;2023-07-29T04:23:33;15.00;99.90
22161;DHT22;49035;48.812;11.762;2023-07-29T04:25:58;15.20;99.90
22161;DHT22;49035;48.812;11.762;2023-07-29T04:28:24;15.80;99.90
22161;DHT22;49035;48.812;11.762;2023-07-29T04:30:50;16.40;99.90
22161;DHT22;49035;48.812;11.762;2023-07-29T04:33:15;16.70;99.90
22161;DHT22;49035;48.812;11.762;2023-07-29T04:35:41;17.20;99.90
22161;DHT22;49035;48.812;11.762;2023-07-29T04:38:06;17.30;99.90
22161;DHT22;49035;48.812;11.762;2023-07-29T04:40:35;17.20;99.90
22161;DHT22;49035;48.812;11.762;2023-07-29T04:43:01;17.40;99.90
22161;DHT22;49035;48.812;11.762;2023-07-29T04:45:30;17.20;99.90
22161;DHT22;49035;48.812;11.762;2023-07-29T04:47:56;16.90;99.90
22161;DHT22;49035;48.812;11.762;2023-07-29T04:50:21;16.70;99.90
22161;DHT22;49035;48.812;11.762;2023-07-29T04:52:47;16.60;99.90
22161;DHT22;49035;48.812;11.762;2023-07-29T04:55:13;16.50;99.90
22161;DHT22;49035;48.812;11.762;2023-07-29T04:57:38;16.60;99.90
22161;DHT22;49035;48.812;11.762;2023-07-29T05:00:04;16.70;99.90
22161;DHT22;49035;48.812;11.762;2023-07-29T05:02:30;16.80;99.90
22161;DHT22;49035;48.812;11.762;2023-07-29T05:04:55;16.80;99.90
22161;DHT22;49035;48.812;11.762;2023-07-29T05:07:21;16.90;99.90
22161;DHT22;49035;48.812;11.762;2023-07-29T05:09:47;17.00;99.90
22161;DHT22;49035;48.812;11.762;2023-07-29T05:12:13;17.10;99.90
22161;DHT22;49035;48.812;11.762;2023-07-29T05:14:38;17.20;99.90
22161;DHT22;49035;48.812;11.762;2023-07-29T05:17:04;17.30;99.90
22161;DHT22;49035;48.812;11.762;2023-07-29T05:19:30;17.50;99.90
22161;DHT22;49035;48.812;11.762;2023-07-29T05:21:56;18.10;99.90
22161;DHT22;49035;48.812;11.762;2023-07-29T05:24:23;18.60;99.90
22161;DHT22;49035;48.812;11.762;2023-07-29T05:26:49;19.00;99.90
22161;DHT22;49035;48.812;11.762;2023-07-29T05:29:14;19.20;99.90
22161;DHT22;49035;48.812;11.762;2023-07-29T05:31:40;20.00;99.90
22161;DHT22;49035;48.812;11.762;2023-07-29T05:34:06;20.90;99.90
22161;DHT22;49035;48.812;11.762;2023-07-29T05:36:31;21.60;99.90
22161;DHT22;49035;48.812;11.762;2023-07-29T05:38:57;22.60;99.90
22161;DHT22;49035;48.812;11.762;2023-07-29T05:41:23;22.90;99.90
22161;DHT22;49035;48.812;11.762;2023-07-29T05:43:48;23.20;99.90
22161;DHT22;49035;48.812;11.762;2023-07-29T05:46:14;22.90;99.90
22161;DHT22;49035;48.812;11.762;2023-07-29T05:48:39;22.60;99.90
22161;DHT22;49035;48.812;11.762;2023-07-29T05:51:05;22.40;99.90
22161;DHT22;49035;48.812;11.762;2023-07-29T05:53:31;22.20;99.90
22161;DHT22;49035;48.812;11.762;2023-07-29T05:55:56;21.80;99.90
22161;DHT22;49035;48.812;11.762;2023-07-29T05:58:22;21.20;99.90
22161;DHT22;49035;48.812;11.762;2023-07-29T06:00:48;21.00;99.90
22161;DHT22;49035;48.812;11.762;2023-07-29T06:03:13;20.90;99.90
22161;DHT22;49035;48.812;11.762;2023-07-29T06:05:39;21.30;99.90
22161;DHT22;49035;48.812;11.762;2023-07-29T06:08:05;21.60;99.90
22161;DHT22;49035;48.812;11.762;2023-07-29T06:10:30;21.70;99.90
22161;DHT22;49035;48.812;11.762;2023-07-29T06:12:56;21.90;99.90
22161;DHT22;49035;48.812;11.762;2023-07-29T06:15:21;21.90;99.90
22161;DHT22;49035;48.812;11.762;2023-07-29T06:17:48;22.00;99.90
22161;DHT22;49035;48.812;11.762;2023-07-29T06:20:14;22.10;99.90
22161;DHT22;49035;48.812;11.762;2023-07-29T06:22:40;22.30;99.90
22161;DHT22;49035;48.812;11.762;2023-07-29T06:25:06;22.30;99.90
22161;DHT22;49035;48.812;11.762;2023-07-29T06:27:32;22.30;99.90
22161;DHT22;49035;48.812;11.762;2023-07-29T06:29:57;22.20;99.90
22161;DHT22;49035;48.812;11.762;2023-07-29T06:32:23;22.20;99.90
22161;DHT22;49035;48.812;11.762;2023-07-29T06:34:48;22.20;99.90
22161;DHT22;49035;48.812;11.762;2023-07-29T06:37:14;22.10;99.90
22161;DHT22;49035;48.812;11.762;2023-07-29T06:39:40;22.10;99.90
22161;DHT22;49035;48.812;11.762;2023-07-29T06:42:05;22.00;99.90
22161;DHT22;49035;48.812;11.762;2023-07-29T06:44:32;21.60;99.90
22161;DHT22;49035;48.812;11.762;2023-07-29T06:46:58;21.40;99.90
22161;DHT22;49035;48.812;11.762;2023-07-29T06:49:23;21.20;99.90
22161;DHT22;49035;48.812;11.762;2023-07-29T06:51:49;21.20;99.90
22161;DHT22;49035;48.812;11.762;2023-07-29T06:54:16;21.20;99.90
22161;DHT22;49035;48.812;11.762;2023-07-29T06:56:41;21.40;99.90
22161;DHT22;49035;48.812;11.762;2023-07-29T06:59:07;21.40;99.90
22161;DHT22;49035;48.812;11.762;2023-07-29T07:01:33;21.60;99.90
22161;DHT22;49035;48.812;11.762;2023-07-29T07:03:59;21.80;99.90
22161;DHT22;49035;48.812;11.762;2023-07-29T07:06:25;22.10;99.90
22161;DHT22;49035;48.812;11.762;2023-07-29T07:08:51;22.30;99.90
22161;DHT22;49035;48.812;11.762;2023-07-29T07:11:17;22.40;99.90
22161;DHT22;49035;48.812;11.762;2023-07-29T07:13:43;22.40;99.90
22161;DHT22;49035;48.812;11.762;2023-07-29T07:16:09;22.50;99.90
22161;DHT22;49035;48.812;11.762;2023-07-29T07:18:34;22.60;99.90
22161;DHT22;49035;48.812;11.762;2023-07-29T07:21:00;23.00;99.90
22161;DHT22;49035;48.812;11.762;2023-07-29T07:23:25;23.50;99.90
22161;DHT22;49035;48.812;11.762;2023-07-29T07:25:51;23.80;99.90
22161;DHT22;49035;48.812;11.762;2023-07-29T07:28:16;23.80;99.90
22161;DHT22;49035;48.812;11.762;2023-07-29T07:30:42;23.80;99.90
22161;DHT22;49035;48.812;11.762;2023-07-29T07:33:08;23.90;99.90
22161;DHT22;49035;48.812;11.762;2023-07-29T07:35:33;24.20;99.90
22161;DHT22;49035;48.812;11.762;2023-07-29T07:37:59;24.40;99.90
22161;DHT22;49035;48.812;11.762;2023-07-29T07:40:27;24.50;99.90
22161;DHT22;49035;48.812;11.762;2023-07-29T07:42:52;24.30;99.90
22161;DHT22;49035;48.812;11.762;2023-07-29T07:45:18;23.70;99.90
22161;DHT22;49035;48.812;11.762;2023-07-29T07:47:44;23.00;99.90
22161;DHT22;49035;48.812;11.762;2023-07-29T07:50:09;22.40;99.90
22161;DHT22;49035;48.812;11.762;2023-07-29T07:52:35;21.60;99.90
22161;DHT22;49035;48.812;11.762;2023-07-29T07:55:01;20.50;99.90
22161;DHT22;49035;48.812;11.762;2023-07-29T07:57:26;19.90;99.90
22161;DHT22;49035;48.812;11.762;2023-07-29T07:59:52;19.60;99.90
22161;DHT22;49035;48.812;11.762;2023-07-29T08:02:18;19.50;99.90
22161;DHT22;49035;48.812;11.762;2023-07-29T08:04:43;19.20;99.90
22161;DHT22;49035;48.812;11.762;2023-07-29T08:07:09;18.80;99.90
22161;DHT22;49035;48.812;11.762;2023-07-29T08:09:35;18.50;99.90
22161;DHT22;49035;48.812;11.762;2023-07-29T08:12:00;18.20;99.90
22161;DHT22;49035;48.812;11.762;2023-07-29T08:14:26;18.10;99.90
22161;DHT22;49035;48.812;11.762;2023-07-29T08:16:52;18.10;99.90
22161;DHT22;49035;48.812;11.762;2023-07-29T08:19:18;18.00;99.90
22161;DHT22;49035;48.812;11.762;2023-07-29T08:21:43;17.90;99.90
22161;DHT22;49035;48.812;11.762;2023-07-29T08:24:09;18.00;99.90
22161;DHT22;49035;48.812;11.762;2023-07-29T08:26:34;17.90;99.90
22161;DHT22;49035;48.812;11.762;2023-07-29T08:29:00;17.90;99.90
22161;DHT22;49035;48.812;11.762;2023-07-29T08:31:26;17.80;99.90
22161;DHT22;49035;48.812;11.762;2023-07-29T08:33:51;17.90;99.90
22161;DHT22;49035;48.812;11.762;2023-07-29T08:36:17;17.90;99.90
22161;DHT22;49035;48.812;11.762;2023-07-29T08:38:42;18.00;99.90
22161;DHT22;49035;48.812;11.762;2023-07-29T08:41:32;18.10;99.90
22161;DHT22;49035;48.812;11.762;2023-07-29T08:44:16;18.30;99.90
22161;DHT22;49035;48.812;11.762;2023-07-29T08:46:44;18.60;99.90
22161;DHT22;49035;48.812;11.762;2023-07-29T08:49:11;19.00;99.90
22161;DHT22;49035;48.812;11.762;2023-07-29T08:51:41;19.40;99.90
22161;DHT22;49035;48.812;11.762;2023-07-29T08:54:07;19.70;99.90
22161;DHT22;49035;48.812;11.762;2023-07-29T08:56:33;19.80;99.90
22161;DHT22;49035;48.812;11.762;2023-07-29T08:58:59;20.20;99.90
22161;DHT22;49035;48.812;11.762;2023-07-29T09:01:27;21.00;99.90
22161;DHT22;49035;48.812;11.762;2023-07-29T09:03:53;21.90;99.90
22161;DHT22;49035;48.812;11.762;2023-07-29T09:06:20;22.90;99.90
22161;DHT22;49035;48.812;11.762;2023-07-29T09:08:49;23.40;99.90
22161;DHT22;49035;48.812;11.762;2023-07-29T09:11:16;23.70;99.90
22161;DHT22;49035;48.812;11.762;2023-07-29T09:13:43;24.00;99.90
22161;DHT22;49035;48.812;11.762;2023-07-29T09:16:09;24.10;99.90
22161;DHT22;49035;48.812;11.762;2023-07-29T09:18:35;24.10;99.90
22161;DHT22;49035;48.812;11.762;2023-07-29T09:21:00;24.20;99.90
22161;DHT22;49035;48.812;11.762;2023-07-29T09:23:26;24.40;99.90
22161;DHT22;49035;48.812;11.762;2023-07-29T09:26:01;25.00;99.90
22161;DHT22;49035;48.812;11.762;2023-07-29T09:28:37;25.50;99.90
22161;DHT22;49035;48.812;11.762;2023-07-29T09:31:03;25.90;99.90
22161;DHT22;49035;48.812;11.762;2023-07-29T09:33:36;26.40;99.90
22161;DHT22;49035;48.812;11.762;2023-07-29T09:36:09;26.80;99.90
22161;DHT22;49035;48.812;11.762;2023-07-29T09:38:35;27.00;99.90
22161;DHT22;49035;48.812;11.762;2023-07-29T09:41:01;27.00;99.90
22161;DHT22;49035;48.812;11.762;2023-07-29T09:43:34;27.40;99.90
22161;DHT22;49035;48.812;11.762;2023-07-29T09:46:04;27.50;99.90
22161;DHT22;49035;48.812;11.762;2023-07-29T09:48:34;26.80;99.90
22161;DHT22;49035;48.812;11.762;2023-07-29T09:51:03;25.60;99.90
22161;DHT22;49035;48.812;11.762;2023-07-29T09:53:39;24.50;99.90
22161;DHT22;49035;48.812;11.762;2023-07-29T09:56:06;23.60;99.90
22161;DHT22;49035;48.812;11.762;2023-07-29T09:58:32;22.60;99.90
22161;DHT22;49035;48.812;11.762;2023-07-29T10:00:58;21.50;99.90
22161;DHT22;49035;48.812;11.762;2023-07-29T10:03:25;20.90;99.90
22161;DHT22;49035;48.812;11.762;2023-07-29T10:05:51;20.80;99.90
22161;DHT22;49035;48.812;11.762;2023-07-29T10:08:18;20.90;99.90
22161;DHT22;49035;48.812;11.762;2023-07-29T10:10:44;21.10;99.90
22161;DHT22;49035;48.812;11.762;2023-07-29T10:13:10;21.50;99.90
22161;DHT22;49035;48.812;11.762;2023-07-29T10:15:37;22.20;99.90
22161;DHT22;49035;48.812;11.762;2023-07-29T10:18:03;23.00;99.90
22161;DHT22;49035;48.812;11.762;2023-07-29T10:20:30;23.40;99.90
22161;DHT22;49035;48.812;11.762;2023-07-29T10:22:59;24.00;99.90
22161;DHT22;49035;48.812;11.762;2023-07-29T10:25:38;25.00;99.90
22161;DHT22;49035;48.812;11.762;2023-07-29T10:28:06;25.80;99.90
22161;DHT22;49035;48.812;11.762;2023-07-29T10:30:32;26.00;99.90
22161;DHT22;49035;48.812;11.762;2023-07-29T10:33:02;26.30;99.90
22161;DHT22;49035;48.812;11.762;2023-07-29T10:35:28;26.80;99.90
22161;DHT22;49035;48.812;11.762;2023-07-29T10:37:54;26.70;99.90
22161;DHT22;49035;48.812;11.762;2023-07-29T10:40:20;27.00;99.90
22161;DHT22;49035;48.812;11.762;2023-07-29T10:43:09;27.20;99.90
22161;DHT22;49035;48.812;11.762;2023-07-29T10:45:39;27.10;99.90
22161;DHT22;49035;48.812;11.762;2023-07-29T10:54:11;26.90;99.90
22161;DHT22;49035;48.812;11.762;2023-07-29T10:56:42;26.70;99.90
22161;DHT22;49035;48.812;11.762;2023-07-29T11:01:57;26.90;99.90
22161;DHT22;49035;48.812;11.762;2023-07-29T11:04:29;27.00;99.90
22161;DHT22;49035;48.812;11.762;2023-07-29T11:07:19;26.90;99.90
22161;DHT22;49035;48.812;11.762;2023-07-29T11:12:36;26.60;99.90
22161;DHT22;49035;48.812;11.762;2023-07-29T11:17:32;26.50;99.90
22161;DHT22;49035;48.812;11.762;2023-07-29T11:20:03;27.20;99.90
22161;DHT22;49035;48.812;11.762;2023-07-29T11:22:29;27.50;99.90
22161;DHT22;49035;48.812;11.762;2023-07-29T11:24:55;28.60;99.90
22161;DHT22;49035;48.812;11.762;2023-07-29T11:27:21;29.20;95.40
22161;DHT22;49035;48.812;11.762;2023-07-29T11:29:48;29.40;93.60
22161;DHT22;49035;48.812;11.762;2023-07-29T11:32:14;29.70;95.50
22161;DHT22;49035;48.812;11.762;2023-07-29T11:34:41;30.00;93.30
22161;DHT22;49035;48.812;11.762;2023-07-29T11:37:06;29.70;92.90
22161;DHT22;49035;48.812;11.762;2023-07-29T11:39:33;29.60;90.80
22161;DHT22;49035;48.812;11.762;2023-07-29T11:41:58;29.60;88.40
22161;DHT22;49035;48.812;11.762;2023-07-29T11:44:27;29.50;90.30
22161;DHT22;49035;48.812;11.762;2023-07-29T11:46:54;27.90;90.20
22161;DHT22;49035;48.812;11.762;2023-07-29T11:49:19;26.60;94.40
22161;DHT22;49035;48.812;11.762;2023-07-29T11:51:46;26.80;93.60
22161;DHT22;49035;48.812;11.762;2023-07-29T11:54:12;26.70;94.80
22161;DHT22;49035;48.812;11.762;2023-07-29T11:56:38;26.70;95.00
22161;DHT22;49035;48.812;11.762;2023-07-29T11:59:04;26.60;92.80
22161;DHT22;49035;48.812;11.762;2023-07-29T12:01:29;26.00;94.10
22161;DHT22;49035;48.812;11.762;2023-07-29T12:03:57;26.00;96.90
22161;DHT22;49035;48.812;11.762;2023-07-29T12:06:24;25.80;95.60
22161;DHT22;49035;48.812;11.762;2023-07-29T12:08:50;26.00;98.00
22161;DHT22;49035;48.812;11.762;2023-07-29T12:11:16;26.70;95.40
22161;DHT22;49035;48.812;11.762;2023-07-29T12:13:44;27.60;93.90
22161;DHT22;49035;48.812;11.762;2023-07-29T12:16:09;28.20;93.80
22161;DHT22;49035;48.812;11.762;2023-07-29T12:18:36;27.90;94.60
22161;DHT22;49035;48.812;11.762;2023-07-29T12:21:02;28.10;93.20
22161;DHT22;49035;48.812;11.762;2023-07-29T12:23:29;28.50;93.20
22161;DHT22;49035;48.812;11.762;2023-07-29T12:25:59;28.90;86.00
22161;DHT22;49035;48.812;11.762;2023-07-29T12:28:25;28.20;92.60
22161;DHT22;49035;48.812;11.762;2023-07-29T12:30:54;28.10;90.30
22161;DHT22;49035;48.812;11.762;2023-07-29T12:33:35;27.30;90.60
22161;DHT22;49035;48.812;11.762;2023-07-29T12:36:02;26.50;90.90
22161;DHT22;49035;48.812;11.762;2023-07-29T12:38:29;25.90;94.10
22161;DHT22;49035;48.812;11.762;2023-07-29T12:40:55;25.80;93.50
22161;DHT22;49035;48.812;11.762;2023-07-29T12:43:21;25.50;93.10
22161;DHT22;49035;48.812;11.762;2023-07-29T12:45:49;25.40;96.10
22161;DHT22;49035;48.812;11.762;2023-07-29T12:48:14;25.40;94.30
22161;DHT22;49035;48.812;11.762;2023-07-29T12:50:40;25.10;95.00
22161;DHT22;49035;48.812;11.762;2023-07-29T12:53:07;24.90;95.90
22161;DHT22;49035;48.812;11.762;2023-07-29T12:55:33;24.70;98.60
22161;DHT22;49035;48.812;11.762;2023-07-29T12:57:58;24.80;99.90
22161;DHT22;49035;48.812;11.762;2023-07-29T13:00:24;25.20;98.90
22161;DHT22;49035;48.812;11.762;2023-07-29T13:02:50;25.40;98.20
22161;DHT22;49035;48.812;11.762;2023-07-29T13:05:16;25.50;97.40
22161;DHT22;49035;48.812;11.762;2023-07-29T13:07:42;24.90;97.10
22161;DHT22;49035;48.812;11.762;2023-07-29T13:10:12;24.60;98.40
22161;DHT22;49035;48.812;11.762;2023-07-29T13:12:37;24.50;98.80
22161;DHT22;49035;48.812;11.762;2023-07-29T13:15:04;24.20;99.30
22161;DHT22;49035;48.812;11.762;2023-07-29T13:17:30;23.30;99.90
22161;DHT22;49035;48.812;11.762;2023-07-29T13:19:55;22.10;99.90
22161;DHT22;49035;48.812;11.762;2023-07-29T13:22:21;21.30;99.90
22161;DHT22;49035;48.812;11.762;2023-07-29T13:24:47;20.90;99.90
22161;DHT22;49035;48.812;11.762;2023-07-29T13:27:12;21.30;99.90
22161;DHT22;49035;48.812;11.762;2023-07-29T13:29:39;21.70;99.90
22161;DHT22;49035;48.812;11.762;2023-07-29T13:32:05;22.30;99.90
22161;DHT22;49035;48.812;11.762;2023-07-29T13:34:31;22.80;99.90
22161;DHT22;49035;48.812;11.762;2023-07-29T13:36:57;23.20;99.90
22161;DHT22;49035;48.812;11.762;2023-07-29T13:39:23;24.10;99.90
22161;DHT22;49035;48.812;11.762;2023-07-29T13:41:48;24.50;99.90
22161;DHT22;49035;48.812;11.762;2023-07-29T13:44:14;24.70;99.90
22161;DHT22;49035;48.812;11.762;2023-07-29T13:46:39;25.10;99.90
22161;DHT22;49035;48.812;11.762;2023-07-29T13:49:05;25.50;99.90
22161;DHT22;49035;48.812;11.762;2023-07-29T13:51:31;25.90;99.90
22161;DHT22;49035;48.812;11.762;2023-07-29T13:53:56;26.10;99.90
22161;DHT22;49035;48.812;11.762;2023-07-29T13:56:22;26.20;99.90
22161;DHT22;49035;48.812;11.762;2023-07-29T13:58:48;25.80;99.90
22161;DHT22;49035;48.812;11.762;2023-07-29T14:01:14;25.40;99.90
22161;DHT22;49035;48.812;11.762;2023-07-29T14:03:39;25.60;99.90
22161;DHT22;49035;48.812;11.762;2023-07-29T14:06:05;26.00;99.90
22161;DHT22;49035;48.812;11.762;2023-07-29T14:08:33;26.40;99.90
22161;DHT22;49035;48.812;11.762;2023-07-29T14:11:00;26.50;99.90
22161;DHT22;49035;48.812;11.762;2023-07-29T14:13:26;26.50;99.90
22161;DHT22;49035;48.812;11.762;2023-07-29T14:15:51;26.80;99.90
22161;DHT22;49035;48.812;11.762;2023-07-29T14:18:17;27.20;99.90
22161;DHT22;49035;48.812;11.762;2023-07-29T14:20:43;27.60;99.90
22161;DHT22;49035;48.812;11.762;2023-07-29T14:23:08;27.50;99.90
22161;DHT22;49035;48.812;11.762;2023-07-29T14:25:34;27.30;99.90
22161;DHT22;49035;48.812;11.762;2023-07-29T14:27:59;27.40;99.90
22161;DHT22;49035;48.812;11.762;2023-07-29T14:30:25;27.60;99.90
22161;DHT22;49035;48.812;11.762;2023-07-29T14:32:51;27.60;98.60
22161;DHT22;49035;48.812;11.762;2023-07-29T14:35:16;27.50;98.30
22161;DHT22;49035;48.812;11.762;2023-07-29T14:37:42;27.80;99.30
22161;DHT22;49035;48.812;11.762;2023-07-29T14:40:08;28.00;97.30
22161;DHT22;49035;48.812;11.762;2023-07-29T14:42:33;28.10;97.50
22161;DHT22;49035;48.812;11.762;2023-07-29T14:44:59;28.10;96.90
22161;DHT22;49035;48.812;11.762;2023-07-29T14:47:24;28.20;96.40
22161;DHT22;49035;48.812;11.762;2023-07-29T14:49:50;28.20;95.90
22161;DHT22;49035;48.812;11.762;2023-07-29T14:52:16;28.50;96.00
22161;DHT22;49035;48.812;11.762;2023-07-29T14:54:41;28.60;95.00
22161;DHT22;49035;48.812;11.762;2023-07-29T14:57:07;28.70;94.90
22161;DHT22;49035;48.812;11.762;2023-07-29T14:59:33;28.80;92.40
22161;DHT22;49035;48.812;11.762;2023-07-29T15:01:59;29.00;91.80
22161;DHT22;49035;48.812;11.762;2023-07-29T15:04:24;28.90;91.90
22161;DHT22;49035;48.812;11.762;2023-07-29T15:06:50;28.70;91.60
22161;DHT22;49035;48.812;11.762;2023-07-29T15:09:18;28.70;91.30
22161;DHT22;49035;48.812;11.762;2023-07-29T15:11:44;28.50;91.30
22161;DHT22;49035;48.812;11.762;2023-07-29T15:14:09;28.60;91.60
22161;DHT22;49035;48.812;11.762;2023-07-29T15:16:35;28.50;91.20
22161;DHT22;49035;48.812;11.762;2023-07-29T15:19:02;28.50;91.70
22161;DHT22;49035;48.812;11.762;2023-07-29T15:21:28;28.60;91.20
22161;DHT22;49035;48.812;11.762;2023-07-29T15:23:54;28.70;91.10
22161;DHT22;49035;48.812;11.762;2023-07-29T15:26:19;28.90;90.30
22161;DHT22;49035;48.812;11.762;2023-07-29T15:28:45;29.10;90.80